sensor_id;sensor_type;location;lat;lon;timestamp;pressure;altitude;pressure_sealevel;temperature;humidity
21449;BME280;10885;52.830;13.788;2023-04-19T05:15:14;102193.31;;;4.05;79.65
21449;BME280;10885;52.830;13.788;2023-04-19T05:20:44;102185.06;;;4.14;78.89
21449;BME280;10885;52.830;13.788;2023-04-19T05:26:17;102184.44;;;4.24;77.87
21449;BME280;10885;52.830;13.788;2023-04-19T05:31:41;102174.84;;;4.37;77.39
21449;BME280;10885;52.830;13.788;2023-04-19T05:37:22;102170.28;;;4.58;76.06
21449;BME280;10885;52.830;13.788;2023-04-19T05:42:44;102162.06;;;4.76;75.99
21449;BME280;10885;52.830;13.788;2023-04-19T05:48:05;102165.66;;;4.94;74.44
21449;BME280;10885;52.830;13.788;2023-04-19T05:53:50;102164.09;;;5.04;74.61
21449;BME280;10885;52.830;13.788;2023-04-19T05:59:12;102150.31;;;5.26;73.29
21449;BME280;10885;52.830;13.788;2023-04-19T06:04:34;102152.38;;;5.46;72.55
21449;BME280;10885;52.830;13.788;2023-04-19T06:09:56;102147.38;;;5.72;70.64
21449;BME280;10885;52.830;13.788;2023-04-19T06:15:17;102150.91;;;5.90;69.17
21449;BME280;10885;52.830;13.788;2023-04-19T06:20:39;102135.25;;;6.03;69.21
21449;BME280;10885;52.830;13.788;2023-04-19T06:26:01;102135.75;;;6.34;66.63
21449;BME280;10885;52.830;13.788;2023-04-19T06:31:22;102124.09;;;6.53;66.06
21449;BME280;10885;52.830;13.788;2023-04-19T06:36:43;102132.16;;;6.84;64.73
21449;BME280;10885;52.830;13.788;2023-04-19T06:42:05;102130.06;;;7.06;63.68
21449;BME280;10885;52.830;13.788;2023-04-19T06:47:27;102120.94;;;7.45;61.57
21449;BME280;10885;52.830;13.788;2023-04-19T06:52:48;102119.97;;;7.89;60.24
21449;BME280;10885;52.830;13.788;2023-04-19T06:58:09;102108.38;;;8.21;58.44
21449;BME280;10885;52.830;13.788;2023-04-19T07:03:30;102096.91;;;9.02;57.79
21449;BME280;10885;52.830;13.788;2023-04-19T07:08:52;102097.22;;;9.95;52.84
21449;BME280;10885;52.830;13.788;2023-04-19T07:14:13;102090.66;;;11.03;50.40
21449;BME280;10885;52.830;13.788;2023-04-19T07:19:34;102077.47;;;12.68;46.18
21449;BME280;10885;52.830;13.788;2023-04-19T07:24:56;102082.03;;;16.42;39.16
21449;BME280;10885;52.830;13.788;2023-04-19T07:30:18;102076.66;;;21.09;27.77
21449;BME280;10885;52.830;13.788;2023-04-19T07:35:42;102051.31;;;19.77;28.66
21449;BME280;10885;52.830;13.788;2023-04-19T07:41:05;102078.66;;;19.48;28.88
21449;BME280;10885;52.830;13.788;2023-04-19T07:46:27;102068.09;;;18.00;30.56
21449;BME280;10885;52.830;13.788;2023-04-19T07:51:49;102054.75;;;17.59;31.08
21449;BME280;10885;52.830;13.788;2023-04-19T07:57:10;102059.34;;;17.81;36.73
21449;BME280;10885;52.830;13.788;2023-04-19T08:02:32;102058.91;;;16.01;33.71
21449;BME280;10885;52.830;13.788;2023-04-19T08:07:53;102055.00;;;13.63;37.32
21449;BME280;10885;52.830;13.788;2023-04-19T08:13:14;102053.31;;;13.77;38.12
21449;BME280;10885;52.830;13.788;2023-04-19T08:18:35;102040.25;;;13.48;38.34
21449;BME280;10885;52.830;13.788;2023-04-19T08:23:57;102049.72;;;12.76;39.27
21449;BME280;10885;52.830;13.788;2023-04-19T08:29:19;102026.25;;;13.08;39.12
21449;BME280;10885;52.830;13.788;2023-04-19T08:34:42;102039.44;;;15.06;36.73
21449;BME280;10885;52.830;13.788;2023-04-19T08:40:03;102019.19;;;15.70;33.52
21449;BME280;10885;52.830;13.788;2023-04-19T08:45:29;102016.16;;;14.78;35.82
21449;BME280;10885;52.830;13.788;2023-04-19T08:50:51;102016.16;;;12.62;39.53
21449;BME280;10885;52.830;13.788;2023-04-19T08:56:22;102024.97;;;11.95;41.20
21449;BME280;10885;52.830;13.788;2023-04-19T09:01:52;102008.28;;;13.97;37.81
21449;BME280;10885;52.830;13.788;2023-04-19T09:07:24;102010.69;;;14.74;36.75
21449;BME280;10885;52.830;13.788;2023-04-19T09:13:03;102000.09;;;16.43;33.56
21449;BME280;10885;52.830;13.788;2023-04-19T09:18:25;102001.13;;;16.15;32.85
21449;BME280;10885;52.830;13.788;2023-04-19T09:23:47;101987.06;;;15.80;34.08
21449;BME280;10885;52.830;13.788;2023-04-19T09:29:08;101974.59;;;16.34;32.99
21449;BME280;10885;52.830;13.788;2023-04-19T09:34:32;101972.00;;;17.29;31.74
21449;BME280;10885;52.830;13.788;2023-04-19T09:39:53;101947.50;;;18.27;30.22
21449;BME280;10885;52.830;13.788;2023-04-19T09:45:16;101960.63;;;17.44;31.00
21449;BME280;10885;52.830;13.788;2023-04-19T09:51:00;101966.56;;;18.65;29.14
21449;BME280;10885;52.830;13.788;2023-04-19T09:56:23;101964.78;;;18.27;28.97
21449;BME280;10885;52.830;13.788;2023-04-19T10:01:45;101952.00;;;17.10;30.60
21449;BME280;10885;52.830;13.788;2023-04-19T10:07:07;101952.22;;;18.18;30.28
21449;BME280;10885;52.830;13.788;2023-04-19T10:12:47;101942.38;;;18.84;28.81
21449;BME280;10885;52.830;13.788;2023-04-19T10:18:12;101939.75;;;17.24;30.37
21449;BME280;10885;52.830;13.788;2023-04-19T10:23:33;101939.81;;;17.93;30.14
21449;BME280;10885;52.830;13.788;2023-04-19T10:28:56;101952.13;;;19.29;27.96
21449;BME280;10885;52.830;13.788;2023-04-19T10:34:36;101928.72;;;20.79;27.80
21449;BME280;10885;52.830;13.788;2023-04-19T10:39:57;101934.31;;;21.64;25.79
21449;BME280;10885;52.830;13.788;2023-04-19T10:45:32;101927.50;;;17.89;28.74
21449;BME280;10885;52.830;13.788;2023-04-19T10:51:16;101931.50;;;15.88;32.16
21449;BME280;10885;52.830;13.788;2023-04-19T11:07:42;101917.94;;;14.22;36.20
21449;BME280;10885;52.830;13.788;2023-04-19T11:13:04;101906.13;;;13.59;37.42
21449;BME280;10885;52.830;13.788;2023-04-19T11:18:28;101886.47;;;13.34;37.70
21449;BME280;10885;52.830;13.788;2023-04-19T11:24:08;101892.94;;;13.16;38.27
21449;BME280;10885;52.830;13.788;2023-04-19T11:29:30;101883.22;;;13.11;39.12
21449;BME280;10885;52.830;13.788;2023-04-19T11:34:51;101872.13;;;13.38;37.54
21449;BME280;10885;52.830;13.788;2023-04-19T11:40:17;101860.25;;;13.40;37.06
21449;BME280;10885;52.830;13.788;2023-04-19T11:45:39;101847.19;;;13.11;36.99
21449;BME280;10885;52.830;13.788;2023-04-19T11:51:01;101850.50;;;12.72;38.17
21449;BME280;10885;52.830;13.788;2023-04-19T11:56:22;101830.94;;;13.78;35.90
21449;BME280;10885;52.830;13.788;2023-04-19T12:01:43;101828.03;;;14.00;36.55
21449;BME280;10885;52.830;13.788;2023-04-19T12:07:05;101824.41;;;14.66;36.98
21449;BME280;10885;52.830;13.788;2023-04-19T12:12:33;101810.78;;;16.84;31.65
21449;BME280;10885;52.830;13.788;2023-04-19T12:18:00;101797.69;;;18.05;30.03
21449;BME280;10885;52.830;13.788;2023-04-19T12:23:22;101799.16;;;18.96;27.38
21449;BME280;10885;52.830;13.788;2023-04-19T12:28:43;101789.13;;;18.84;26.24
21449;BME280;10885;52.830;13.788;2023-04-19T12:34:04;101784.63;;;16.96;27.92
21449;BME280;10885;52.830;13.788;2023-04-19T12:39:26;101777.59;;;16.61;29.38
21449;BME280;10885;52.830;13.788;2023-04-19T12:44:48;101781.72;;;16.74;29.69
21449;BME280;10885;52.830;13.788;2023-04-19T12:50:09;101777.53;;;16.10;30.69
21449;BME280;10885;52.830;13.788;2023-04-19T12:55:30;101774.22;;;15.50;31.80
21449;BME280;10885;52.830;13.788;2023-04-19T13:00:51;101775.69;;;15.61;32.48
21449;BME280;10885;52.830;13.788;2023-04-19T13:06:12;101773.72;;;14.96;32.86
21449;BME280;10885;52.830;13.788;2023-04-19T13:11:35;101772.81;;;14.24;34.35
21449;BME280;10885;52.830;13.788;2023-04-19T13:16:56;101752.91;;;13.93;35.01
21449;BME280;10885;52.830;13.788;2023-04-19T13:22:17;101746.31;;;13.30;36.86
21449;BME280;10885;52.830;13.788;2023-04-19T13:27:38;101743.97;;;12.82;37.52
21449;BME280;10885;52.830;13.788;2023-04-19T13:32:59;101743.22;;;12.58;38.81
21449;BME280;10885;52.830;13.788;2023-04-19T13:38:21;101743.50;;;12.62;38.85
21449;BME280;10885;52.830;13.788;2023-04-19T13:43:50;101717.97;;;13.04;39.15
21449;BME280;10885;52.830;13.788;2023-04-19T13:49:11;101725.50;;;13.14;38.41
21449;BME280;10885;52.830;13.788;2023-04-19T13:54:32;101713.28;;;12.71;38.91
21449;BME280;10885;52.830;13.788;2023-04-19T13:59:53;101708.06;;;12.20;39.61
21449;BME280;10885;52.830;13.788;2023-04-19T14:05:14;101697.91;;;11.72;41.87
21449;BME280;10885;52.830;13.788;2023-04-19T14:10:36;101701.22;;;11.23;43.81
21449;BME280;10885;52.830;13.788;2023-04-19T14:15:58;101708.81;;;10.52;46.48
21449;BME280;10885;52.830;13.788;2023-04-19T14:21:19;101713.25;;;10.21;47.18
21449;BME280;10885;52.830;13.788;2023-04-19T14:26:40;101708.38;;;9.80;48.15
21449;BME280;10885;52.830;13.788;2023-04-19T14:32:02;101731.91;;;9.53;52.85
21449;BME280;10885;52.830;13.788;2023-04-19T14:37:30;101734.66;;;8.82;59.85
21449;BME280;10885;52.830;13.788;2023-04-19T14:42:51;101734.66;;;8.11;65.15
21449;BME280;10885;52.830;13.788;2023-04-19T14:48:13;101731.88;;;7.69;67.93
21449;BME280;10885;52.830;13.788;2023-04-19T14:53:34;101733.38;;;7.67;68.30
21449;BME280;10885;52.830;13.788;2023-04-19T14:58:56;101711.25;;;7.47;66.58
21449;BME280;10885;52.830;13.788;2023-04-19T15:04:17;101709.47;;;7.27;67.53
21449;BME280;10885;52.830;13.788;2023-04-19T15:09:39;101708.69;;;6.99;69.70
21449;BME280;10885;52.830;13.788;2023-04-19T15:15:00;101705.38;;;7.00;70.50
21449;BME280;10885;52.830;13.788;2023-04-19T15:20:22;101697.72;;;7.00;71.04
21449;BME280;10885;52.830;13.788;2023-04-19T15:25:43;101692.00;;;7.02;72.29
21449;BME280;10885;52.830;13.788;2023-04-19T15:31:06;101691.69;;;7.18;72.02
21449;BME280;10885;52.830;13.788;2023-04-19T15:36:28;101681.72;;;7.11;71.15
21449;BME280;10885;52.830;13.788;2023-04-19T15:41:50;101671.19;;;7.16;71.68
21449;BME280;10885;52.830;13.788;2023-04-19T15:47:11;101675.13;;;6.94;73.06
21449;BME280;10885;52.830;13.788;2023-04-19T15:52:32;101664.81;;;6.92;73.97
21449;BME280;10885;52.830;13.788;2023-04-19T15:57:54;101657.72;;;6.80;75.30
21449;BME280;10885;52.830;13.788;2023-04-19T16:03:15;101655.00;;;6.78;76.12
21449;BME280;10885;52.830;13.788;2023-04-19T16:08:37;101656.69;;;6.77;76.78
21449;BME280;10885;52.830;13.788;2023-04-19T16:13:58;101655.09;;;6.69;77.56
21449;BME280;10885;52.830;13.788;2023-04-19T16:19:19;101645.53;;;6.67;78.02
21449;BME280;10885;52.830;13.788;2023-04-19T16:24:43;101642.53;;;6.62;78.59
21449;BME280;10885;52.830;13.788;2023-04-19T16:30:06;101648.34;;;6.51;78.56
21449;BME280;10885;52.830;13.788;2023-04-19T16:35:27;101656.41;;;6.55;79.26
21449;BME280;10885;52.830;13.788;2023-04-19T16:40:48;101661.34;;;6.54;80.24
21449;BME280;10885;52.830;13.788;2023-04-19T16:46:09;101659.28;;;6.50;80.34
21449;BME280;10885;52.830;13.788;2023-04-19T16:51:31;101667.94;;;6.52;81.41
21449;BME280;10885;52.830;13.788;2023-04-19T16:56:52;101667.94;;;6.52;81.74
21449;BME280;10885;52.830;13.788;2023-04-19T17:02:14;101673.75;;;6.60;81.95
21449;BME280;10885;52.830;13.788;2023-04-19T17:07:35;101673.34;;;6.55;83.06
21449;BME280;10885;52.830;13.788;2023-04-19T17:12:56;101671.38;;;6.52;83.42
21449;BME280;10885;52.830;13.788;2023-04-19T17:18:17;101675.34;;;6.49;83.17
21449;BME280;10885;52.830;13.788;2023-04-19T17:23:38;101669.22;;;6.47;83.79
21449;BME280;10885;52.830;13.788;2023-04-19T17:28:59;101671.59;;;6.45;83.80
21449;BME280;10885;52.830;13.788;2023-04-19T17:34:22;101679.56;;;6.40;85.08
21449;BME280;10885;52.830;13.788;2023-04-19T17:39:43;101677.22;;;6.32;85.21
21449;BME280;10885;52.830;13.788;2023-04-19T17:45:04;101681.09;;;6.37;85.58
21449;BME280;10885;52.830;13.788;2023-04-19T17:50:30;101680.63;;;6.42;86.04
21449;BME280;10885;52.830;13.788;2023-04-19T17:55:51;101687.06;;;6.38;85.71
21449;BME280;10885;52.830;13.788;2023-04-19T18:01:12;101696.84;;;6.33;86.81
21449;BME280;10885;52.830;13.788;2023-04-19T18:06:35;101706.47;;;6.27;86.94
21449;BME280;10885;52.830;13.788;2023-04-19T18:11:55;101696.31;;;6.18;87.35
21449;BME280;10885;52.830;13.788;2023-04-19T18:17:17;101702.50;;;6.12;87.77
21449;BME280;10885;52.830;13.788;2023-04-19T18:22:38;101709.66;;;6.16;87.65
21449;BME280;10885;52.830;13.788;2023-04-19T18:27:59;101708.63;;;6.14;87.05
21449;BME280;10885;52.830;13.788;2023-04-19T18:33:20;101709.50;;;6.14;87.42
21449;BME280;10885;52.830;13.788;2023-04-19T18:38:42;101708.47;;;6.12;86.97
21449;BME280;10885;52.830;13.788;2023-04-19T18:44:03;101716.81;;;6.20;87.22
21449;BME280;10885;52.830;13.788;2023-04-19T18:49:27;101709.66;;;6.16;86.73
21449;BME280;10885;52.830;13.788;2023-04-19T18:54:48;101720.94;;;6.09;87.10
21449;BME280;10885;52.830;13.788;2023-04-19T19:00:09;101723.78;;;6.04;86.98
21449;BME280;10885;52.830;13.788;2023-04-19T19:05:31;101731.44;;;6.04;87.75
21449;BME280;10885;52.830;13.788;2023-04-19T19:10:52;101737.00;;;6.00;87.45
21449;BME280;10885;52.830;13.788;2023-04-19T19:16:17;101734.88;;;6.04;87.81
21449;BME280;10885;52.830;13.788;2023-04-19T19:21:39;101736.53;;;6.04;87.22
21449;BME280;10885;52.830;13.788;2023-04-19T19:27:00;101729.63;;;6.03;87.38
21449;BME280;10885;52.830;13.788;2023-04-19T19:32:23;101735.75;;;6.05;86.98
21449;BME280;10885;52.830;13.788;2023-04-19T19:37:44;101739.81;;;6.03;87.09
21449;BME280;10885;52.830;13.788;2023-04-19T19:43:06;101737.56;;;6.06;87.72
21449;BME280;10885;52.830;13.788;2023-04-19T19:48:26;101746.97;;;6.07;87.23
21449;BME280;10885;52.830;13.788;2023-04-19T19:53:49;101760.63;;;6.07;87.56
21449;BME280;10885;52.830;13.788;2023-04-19T19:59:10;101762.25;;;6.07;88.68
21449;BME280;10885;52.830;13.788;2023-04-19T20:04:33;101770.19;;;6.10;88.36
21449;BME280;10885;52.830;13.788;2023-04-19T20:09:54;101774.38;;;6.09;88.26
21449;BME280;10885;52.830;13.788;2023-04-19T20:15:15;101770.97;;;6.00;88.66
21449;BME280;10885;52.830;13.788;2023-04-19T20:20:36;101766.91;;;5.93;89.10
21449;BME280;10885;52.830;13.788;2023-04-19T20:25:57;101768.31;;;5.81;88.29
21449;BME280;10885;52.830;13.788;2023-04-19T20:31:20;101749.31;;;5.77;88.40
21449;BME280;10885;52.830;13.788;2023-04-19T20:36:42;101767.84;;;5.76;88.49
21449;BME280;10885;52.830;13.788;2023-04-19T20:42:06;101765.19;;;5.75;89.15
21449;BME280;10885;52.830;13.788;2023-04-19T20:47:28;101758.72;;;5.78;89.33
21449;BME280;10885;52.830;13.788;2023-04-19T20:52:51;101760.06;;;5.84;88.97
21449;BME280;10885;52.830;13.788;2023-04-19T20:58:11;101772.47;;;5.89;89.54
21449;BME280;10885;52.830;13.788;2023-04-19T21:03:32;101764.06;;;5.90;89.17
21449;BME280;10885;52.830;13.788;2023-04-19T21:08:54;101767.06;;;5.86;89.48
21449;BME280;10885;52.830;13.788;2023-04-19T21:14:14;101773.66;;;5.93;89.41
21449;BME280;10885;52.830;13.788;2023-04-19T21:19:36;101772.78;;;6.01;89.25
21449;BME280;10885;52.830;13.788;2023-04-19T21:24:56;101762.59;;;6.01;88.55
21449;BME280;10885;52.830;13.788;2023-04-19T21:41:32;101779.19;;;6.43;85.50
21449;BME280;10885;52.830;13.788;2023-04-19T21:46:53;101774.91;;;6.33;85.43
21449;BME280;10885;52.830;13.788;2023-04-19T21:52:14;101772.22;;;6.23;86.26
21449;BME280;10885;52.830;13.788;2023-04-19T21:57:36;101765.97;;;6.19;85.64
